Time;durP1;ratioP1;P1;durP2;ratioP2;P2;SDS_P1;SDS_P2;PMS_P1;PMS_P2;Temp;Humidity;BMP_temperature;BMP_pressure;BME280_temperature;BME280_humidity;BME280_pressure;Samples;Min_cycle;Max_cycle;Signal;HPM_P1;HPM_P2
2022/06/01 00:00:29;;;;;;;1.98;1.10;;;20.80;55.00;;;;;;4909630;28;92753;-65
2022/06/01 00:02:55;;;;;;;4.13;1.65;;;20.80;55.00;;;;;;4909398;28;92458;-65
2022/06/01 00:05:21;;;;;;;1.60;1.15;;;20.80;55.10;;;;;;4908881;28;94233;-66
2022/06/01 00:07:47;;;;;;;2.83;1.45;;;20.80;55.10;;;;;;4908284;28;92839;-66
2022/06/01 00:10:14;;;;;;;2.65;1.60;;;20.80;55.00;;;;;;4908252;28;93437;-66
2022/06/01 00:12:40;;;;;;;1.65;1.40;;;20.80;55.80;;;;;;4909392;28;93029;-66
2022/06/01 00:15:07;;;;;;;2.33;1.50;;;20.70;54.90;;;;;;4908863;28;93223;-66
2022/06/01 00:17:33;;;;;;;1.67;1.10;;;20.70;55.00;;;;;;4909295;28;94731;-66
2022/06/01 00:19:59;;;;;;;1.55;1.30;;;20.80;55.10;;;;;;4909769;28;92851;-66
2022/06/01 00:22:25;;;;;;;1.63;1.17;;;20.80;55.00;;;;;;4909423;28;93147;-66
2022/06/01 00:24:50;;;;;;;2.53;1.40;;;20.80;55.10;;;;;;4909462;28;92488;-66
2022/06/01 00:27:18;;;;;;;2.08;1.10;;;20.80;55.20;;;;;;4909195;28;92293;-65
2022/06/01 00:29:44;;;;;;;3.13;1.38;;;20.70;55.20;;;;;;4906809;28;92664;-66
2022/06/01 00:32:13;;;;;;;2.25;1.20;;;20.80;55.00;;;;;;4908356;28;92209;-66
2022/06/01 00:34:39;;;;;;;1.98;1.10;;;20.70;55.00;;;;;;4906138;28;95601;-65
2022/06/01 00:37:05;;;;;;;2.67;1.35;;;20.80;55.00;;;;;;4907789;28;93611;-65
2022/06/01 00:39:32;;;;;;;2.38;1.75;;;20.80;55.10;;;;;;4909302;28;92704;-66
2022/06/01 00:42:18;;;;;;;2.15;1.20;;;20.70;55.00;;;;;;4909228;28;92836;-65
2022/06/01 00:44:45;;;;;;;2.08;1.10;;;20.80;54.90;;;;;;4907244;28;93203;-66
2022/06/01 00:47:11;;;;;;;2.10;1.17;;;20.80;55.00;;;;;;4908242;28;93060;-66
2022/06/01 00:49:40;;;;;;;2.17;1.33;;;20.80;54.80;;;;;;4909511;28;92172;-66
2022/06/01 00:52:06;;;;;;;1.70;1.25;;;20.80;55.00;;;;;;4909488;28;92151;-66
2022/06/01 00:54:32;;;;;;;1.67;1.00;;;20.70;54.80;;;;;;4908040;28;93110;-66
2022/06/01 00:57:07;;;;;;;1.58;1.02;;;20.70;54.90;;;;;;4908254;28;92663;-66
2022/06/01 00:59:40;;;;;;;1.13;0.98;;;20.70;55.00;;;;;;4908734;28;92969;-66
2022/06/01 01:02:07;;;;;;;1.90;1.52;;;20.70;54.90;;;;;;4908920;28;92873;-66
2022/06/01 01:04:35;;;;;;;1.83;1.20;;;20.70;54.90;;;;;;4907123;28;97071;-65
2022/06/01 01:07:06;;;;;;;3.13;1.25;;;20.70;54.80;;;;;;4908046;28;92888;-66
2022/06/01 01:09:34;;;;;;;1.95;1.50;;;20.70;54.90;;;;;;4908463;28;92572;-66
2022/06/01 01:12:08;;;;;;;1.80;1.20;;;20.70;55.00;;;;;;4907767;28;92560;-65
2022/06/01 01:14:36;;;;;;;2.30;1.20;;;20.70;54.90;;;;;;4908229;28;92662;-66
2022/06/01 01:17:05;;;;;;;1.42;1.13;;;20.70;55.00;;;;;;4908390;28;92815;-65
2022/06/01 01:19:54;;;;;;;1.88;1.00;;;20.70;55.00;;;;;;4908874;28;92662;-65
2022/06/01 01:22:25;;;;;;;2.10;1.00;;;20.70;55.00;;;;;;4907881;28;93279;-66
2022/06/01 01:25:21;;;;;;;1.98;1.23;;;20.70;55.10;;;;;;4907490;28;94261;-66
2022/06/01 01:27:51;;;;;;;1.33;1.10;;;20.70;55.10;;;;;;4908321;28;93699;-65
2022/06/01 01:30:39;;;;;;;1.73;1.20;;;20.70;55.10;;;;;;4907570;28;92837;-66
2022/06/01 01:33:11;;;;;;;1.73;1.10;;;20.60;55.00;;;;;;4907052;28;93115;-66
2022/06/01 01:35:37;;;;;;;1.30;1.02;;;20.70;55.10;;;;;;4907962;28;93063;-65
2022/06/01 01:38:09;;;;;;;1.38;1.13;;;20.70;55.00;;;;;;4908687;28;92346;-65
2022/06/01 01:40:35;;;;;;;1.70;1.10;;;20.70;55.10;;;;;;4908594;28;92488;-66
2022/06/01 01:43:02;;;;;;;2.17;1.10;;;20.60;55.10;;;;;;4908417;28;92289;-66
2022/06/01 01:45:30;;;;;;;2.28;1.20;;;20.70;55.10;;;;;;4907529;28;93163;-66
2022/06/01 01:47:56;;;;;;;2.08;1.13;;;20.60;55.00;;;;;;4908031;28;93327;-67
2022/06/01 01:50:23;;;;;;;1.23;1.00;;;20.70;55.10;;;;;;4908504;28;93808;-66
2022/06/01 01:52:50;;;;;;;1.77;1.00;;;20.70;55.00;;;;;;4906510;28;92778;-65
2022/06/01 01:55:33;;;;;;;1.45;1.35;;;20.70;55.10;;;;;;4909183;28;93694;-66
2022/06/01 01:58:26;;;;;;;1.55;1.35;;;20.70;55.00;;;;;;4911194;28;92164;-65
2022/06/01 02:01:10;;;;;;;1.75;1.02;;;20.70;55.10;;;;;;4911226;28;92572;-66
2022/06/01 02:06:03;;;;;;;1.33;1.10;;;20.60;54.90;;;;;;4908877;28;92105;-66
2022/06/01 02:06:55;;;;;;;1.48;1.10;;;20.70;55.00;;;;;;4909806;28;94365;-66
2022/06/01 02:09:21;;;;;;;2.33;1.27;;;20.60;54.90;;;;;;4911089;28;93077;-66
2022/06/01 02:14:52;;;;;;;1.40;1.10;;;20.60;54.90;;;;;;4911159;28;92871;-66
2022/06/01 02:17:23;;;;;;;1.20;1.10;;;20.60;55.00;;;;;;4910370;28;93654;-66
2022/06/01 02:20:05;;;;;;;1.92;1.20;;;20.60;54.90;;;;;;4910361;28;93977;-65
2022/06/01 02:22:34;;;;;;;1.17;1.05;;;20.60;55.10;;;;;;4910974;28;92231;-66
2022/06/01 02:25:00;;;;;;;1.27;1.13;;;20.60;54.80;;;;;;4910760;28;92501;-66
2022/06/01 02:27:25;;;;;;;1.63;1.25;;;20.60;54.80;;;;;;4910780;28;93358;-65
2022/06/01 02:30:00;;;;;;;2.35;0.90;;;20.60;54.90;;;;;;4911393;28;92538;-65
2022/06/01 02:32:28;;;;;;;1.17;0.90;;;20.60;54.90;;;;;;4909640;28;92353;-65
2022/06/01 02:34:56;;;;;;;1.25;1.00;;;20.60;54.90;;;;;;4911138;28;91642;-66
2022/06/01 02:37:23;;;;;;;1.38;1.10;;;20.60;54.90;;;;;;4910218;28;92721;-66
2022/06/01 02:39:53;;;;;;;1.15;0.93;;;20.60;55.10;;;;;;4910841;28;94056;-66
2022/06/01 02:42:30;;;;;;;1.88;1.00;;;20.60;55.00;;;;;;4910919;28;93686;-65
2022/06/01 02:45:05;;;;;;;1.58;1.20;;;20.60;54.90;;;;;;4911144;28;92594;-66
2022/06/01 02:47:34;;;;;;;1.25;1.00;;;20.50;54.90;;;;;;4909734;28;95282;-66
2022/06/01 02:50:01;;;;;;;1.45;1.10;;;20.50;54.90;;;;;;4908823;28;93434;-65
2022/06/01 02:52:27;;;;;;;1.90;1.15;;;20.60;55.00;;;;;;4909862;28;92095;-66
2022/06/01 02:54:53;;;;;;;2.38;1.20;;;20.60;55.00;;;;;;4908866;28;93113;-65
2022/06/01 02:57:19;;;;;;;2.13;1.27;;;20.60;54.90;;;;;;4909864;28;93129;-66
2022/06/01 02:59:46;;;;;;;2.15;1.38;;;20.60;55.00;;;;;;4910478;28;92964;-65
2022/06/01 03:02:12;;;;;;;1.42;1.00;;;20.50;54.90;;;;;;4910789;28;91976;-65
2022/06/01 03:04:40;;;;;;;0.95;0.90;;;20.50;55.00;;;;;;4910173;28;92657;-66
2022/06/01 03:07:07;;;;;;;1.10;1.00;;;20.50;54.90;;;;;;4909364;28;94041;-66
2022/06/01 03:09:32;;;;;;;1.27;1.00;;;20.50;54.90;;;;;;4910319;28;93458;-65
2022/06/01 03:11:58;;;;;;;1.98;1.20;;;20.50;55.00;;;;;;4908809;28;92068;-66
2022/06/01 03:14:24;;;;;;;1.85;1.10;;;20.50;55.00;;;;;;4910859;28;92865;-65
2022/06/01 03:16:50;;;;;;;1.27;1.05;;;20.50;55.00;;;;;;4909646;28;93233;-66
2022/06/01 03:19:16;;;;;;;1.00;0.90;;;20.50;54.90;;;;;;4908802;28;93280;-65
2022/06/01 03:21:42;;;;;;;1.50;0.95;;;20.50;55.00;;;;;;4908973;28;92077;-65
2022/06/01 03:24:09;;;;;;;1.27;0.95;;;20.50;55.00;;;;;;4910560;28;92000;-65
2022/06/01 03:26:35;;;;;;;1.80;1.25;;;20.50;55.10;;;;;;4909839;28;93560;-66
2022/06/01 03:29:01;;;;;;;1.35;1.00;;;20.50;55.00;;;;;;4910079;28;93885;-65
2022/06/01 03:31:26;;;;;;;1.50;1.10;;;20.50;55.00;;;;;;4909647;28;93677;-66
2022/06/01 03:33:52;;;;;;;1.92;1.20;;;20.50;55.20;;;;;;4910458;28;92165;-65
2022/06/01 03:36:19;;;;;;;1.45;0.95;;;20.50;55.10;;;;;;4910236;28;93221;-65
2022/06/01 03:38:44;;;;;;;1.50;1.10;;;20.50;55.00;;;;;;4909305;28;92956;-65
2022/06/01 03:41:10;;;;;;;1.35;0.90;;;20.50;55.10;;;;;;4909727;28;93335;-65
2022/06/01 03:45:55;;;;;;;1.75;1.10;;;20.50;55.00;;;;;;4909065;28;93260;-66
2022/06/01 03:46:22;;;;;;;1.30;1.00;;;20.50;55.00;;;;;;4908925;28;94034;-65
2022/06/01 03:48:49;;;;;;;1.58;1.00;;;20.50;55.10;;;;;;4909568;28;93076;-65
2022/06/01 03:51:15;;;;;;;1.40;0.95;;;20.50;55.10;;;;;;4910100;28;91993;-66
2022/06/01 03:53:41;;;;;;;3.47;1.35;;;20.50;55.00;;;;;;4909790;28;92811;-65
2022/06/01 03:56:08;;;;;;;1.33;1.10;;;20.50;55.00;;;;;;4908546;28;94428;-66
2022/06/01 03:58:35;;;;;;;1.17;1.00;;;20.50;55.20;;;;;;4909401;28;93643;-65
2022/06/01 04:01:03;;;;;;;1.48;0.80;;;20.50;55.20;;;;;;4909800;28;92767;-65
2022/06/01 04:03:29;;;;;;;2.13;1.15;;;20.50;55.20;;;;;;4909601;28;92556;-66
2022/06/01 04:05:55;;;;;;;1.38;1.00;;;20.50;55.00;;;;;;4909160;28;93404;-66
2022/06/01 04:08:21;;;;;;;1.17;1.08;;;20.50;54.90;;;;;;4911966;28;95397;-66
2022/06/01 04:10:47;;;;;;;1.65;1.02;;;20.40;55.00;;;;;;4909738;28;93221;-66
2022/06/01 04:13:14;;;;;;;1.25;0.90;;;20.50;55.00;;;;;;4909497;28;92193;-65
2022/06/01 04:15:40;;;;;;;1.35;1.10;;;20.50;55.10;;;;;;4909678;28;93290;-66
2022/06/01 04:18:06;;;;;;;1.05;0.80;;;20.50;55.10;;;;;;4908115;28;92297;-66
2022/06/01 04:20:32;;;;;;;1.42;1.17;;;20.40;55.00;;;;;;4907549;28;93513;-66
2022/06/01 04:23:00;;;;;;;1.25;1.00;;;20.40;55.00;;;;;;4908617;28;93036;-65
2022/06/01 04:25:26;;;;;;;1.30;0.80;;;20.50;55.00;;;;;;4909244;28;92562;-66
2022/06/01 04:27:52;;;;;;;0.95;0.90;;;20.50;55.00;;;;;;4907473;28;94054;-66
2022/06/01 04:30:20;;;;;;;1.38;1.00;;;20.40;54.90;;;;;;4908911;28;92931;-66
2022/06/01 04:32:48;;;;;;;1.60;0.98;;;20.50;55.00;;;;;;4909179;28;92483;-65
2022/06/01 04:35:14;;;;;;;1.92;1.02;;;20.50;54.90;;;;;;4908916;28;92860;-66
2022/06/01 04:37:40;;;;;;;1.02;0.85;;;20.50;54.90;;;;;;4909340;28;92368;-66
2022/06/01 04:40:06;;;;;;;1.38;0.77;;;20.50;54.90;;;;;;4909724;28;92561;-66
2022/06/01 04:42:33;;;;;;;1.25;1.00;;;20.50;55.00;;;;;;4907560;28;92411;-66
2022/06/01 04:44:59;;;;;;;1.67;1.13;;;20.50;55.00;;;;;;4908192;28;94054;-66
2022/06/01 04:47:25;;;;;;;1.42;0.90;;;20.50;55.10;;;;;;4908656;28;93848;-65
2022/06/01 04:49:50;;;;;;;2.13;0.90;;;20.50;55.00;;;;;;4909097;28;93131;-65
2022/06/01 04:52:16;;;;;;;2.13;1.00;;;20.50;55.10;;;;;;4909105;28;92964;-65
2022/06/01 04:54:42;;;;;;;1.15;0.88;;;20.50;55.10;;;;;;4908054;28;93056;-66
2022/06/01 04:57:07;;;;;;;4.32;1.20;;;20.50;55.00;;;;;;4907905;28;93312;-66
2022/06/01 04:59:34;;;;;;;1.02;0.80;;;20.50;55.00;;;;;;4924002;28;92415;-65
2022/06/01 05:02:00;;;;;;;1.00;0.90;;;20.60;55.00;;;;;;4908247;28;91491;-66
2022/06/01 05:04:28;;;;;;;1.08;0.77;;;20.50;55.00;;;;;;4908502;28;93616;-66
2022/06/01 05:06:55;;;;;;;1.42;0.82;;;20.60;55.10;;;;;;4908768;28;93027;-66
2022/06/01 05:09:21;;;;;;;0.88;0.82;;;20.60;55.20;;;;;;4907849;28;93567;-65
2022/06/01 05:11:47;;;;;;;1.42;1.10;;;20.60;55.30;;;;;;4908660;28;92592;-66
2022/06/01 05:14:12;;;;;;;0.95;0.82;;;20.60;55.20;;;;;;4907822;28;92627;-66
2022/06/01 05:16:38;;;;;;;1.10;0.90;;;20.60;55.20;;;;;;4907827;28;93019;-66
2022/06/01 05:19:05;;;;;;;1.40;1.00;;;20.60;55.10;;;;;;4907955;28;93076;-66
2022/06/01 05:21:30;;;;;;;1.60;1.00;;;20.60;55.00;;;;;;4907473;28;92661;-66
2022/06/01 05:23:56;;;;;;;1.20;1.10;;;20.60;55.10;;;;;;4907683;28;93078;-66
2022/06/01 05:26:22;;;;;;;0.70;0.70;;;20.60;55.30;;;;;;4907105;28;93236;-66
2022/06/01 05:28:48;;;;;;;1.13;0.90;;;20.60;55.20;;;;;;4908611;28;92002;-66
2022/06/01 05:31:14;;;;;;;1.25;1.15;;;20.60;55.20;;;;;;4911073;28;92650;-65
2022/06/01 05:33:45;;;;;;;1.25;0.90;;;20.60;55.30;;;;;;4910855;28;94554;-66
2022/06/01 05:36:13;;;;;;;1.13;1.02;;;20.70;55.30;;;;;;4911740;28;94144;-66
2022/06/01 05:38:40;;;;;;;0.93;0.90;;;20.70;55.40;;;;;;4912363;28;92017;-66
2022/06/01 05:41:05;;;;;;;1.23;0.93;;;20.70;55.50;;;;;;4911978;28;92741;-66
2022/06/01 05:43:31;;;;;;;1.38;0.90;;;20.70;55.40;;;;;;4911074;28;93275;-65
2022/06/01 05:45:57;;;;;;;1.00;0.90;;;20.70;55.40;;;;;;4910139;28;92816;-66
2022/06/01 05:48:23;;;;;;;1.10;0.90;;;20.60;55.40;;;;;;4910851;28;92515;-66
2022/06/01 05:50:49;;;;;;;0.70;0.70;;;20.70;55.50;;;;;;4911096;28;91919;-66
2022/06/01 05:53:15;;;;;;;2.85;1.02;;;20.70;55.70;;;;;;4913777;28;93428;-66
2022/06/01 05:55:41;;;;;;;0.90;0.70;;;20.70;55.60;;;;;;4911245;28;92791;-65
2022/06/01 05:58:18;;;;;;;1.00;0.90;;;20.60;55.50;;;;;;4910609;28;92929;-65
2022/06/01 06:00:46;;;;;;;1.23;0.80;;;20.70;55.70;;;;;;4911129;28;92583;-66
2022/06/01 06:03:12;;;;;;;1.70;1.10;;;20.70;55.60;;;;;;4911061;28;92592;-66
2022/06/01 06:08:23;;;;;;;1.85;1.10;;;20.60;55.60;;;;;;4911676;28;92541;-65
2022/06/01 06:10:49;;;;;;;1.70;1.08;;;20.70;55.80;;;;;;4911646;28;92633;-66
2022/06/01 06:13:15;;;;;;;3.53;1.00;;;20.70;55.60;;;;;;4910264;28;93649;-66
2022/06/01 06:15:41;;;;;;;3.47;1.23;;;20.70;55.70;;;;;;4909365;28;95550;-66
2022/06/01 06:18:07;;;;;;;1.30;1.02;;;20.60;55.90;;;;;;4910574;28;93132;-66
2022/06/01 06:20:33;;;;;;;2.67;1.15;;;20.70;55.90;;;;;;4912548;28;92959;-66
2022/06/01 06:22:59;;;;;;;3.42;1.20;;;20.70;55.90;;;;;;4910359;28;93867;-66
2022/06/01 06:25:25;;;;;;;6.68;1.45;;;20.70;55.80;;;;;;4911760;28;93738;-66
2022/06/01 06:27:51;;;;;;;2.83;1.08;;;20.70;56.00;;;;;;4914046;28;92511;-65
2022/06/01 06:30:19;;;;;;;1.83;1.10;;;20.60;56.10;;;;;;4913406;28;92590;-66
2022/06/01 06:32:46;;;;;;;1.10;1.00;;;20.70;56.40;;;;;;4911647;28;93290;-65
2022/06/01 06:35:12;;;;;;;5.70;1.20;;;20.60;56.40;;;;;;4910627;28;94069;-66
2022/06/01 06:37:38;;;;;;;4.93;1.33;;;20.70;56.40;;;;;;4909788;28;93074;-66
2022/06/01 06:40:04;;;;;;;3.92;1.10;;;20.70;56.40;;;;;;4911835;28;91649;-66
2022/06/01 06:42:30;;;;;;;4.55;2.13;;;20.60;56.40;;;;;;4910057;28;94133;-66
2022/06/01 06:44:56;;;;;;;1.48;0.90;;;20.70;56.20;;;;;;4905067;28;92521;-66
2022/06/01 06:47:22;;;;;;;6.53;1.25;;;20.70;56.40;;;;;;4909344;28;94037;-66
2022/06/01 06:49:47;;;;;;;4.57;1.15;;;20.70;56.20;;;;;;4913754;28;92432;-66
2022/06/01 06:52:13;;;;;;;2.53;1.00;;;20.70;56.40;;;;;;4907459;28;97114;-66
2022/06/01 06:54:39;;;;;;;3.33;1.25;;;20.70;56.30;;;;;;4909868;28;93190;-66
2022/06/01 06:57:06;;;;;;;3.35;1.20;;;20.70;56.40;;;;;;4908587;28;93021;-66
2022/06/01 06:59:32;;;;;;;5.35;1.40;;;20.70;56.50;;;;;;4909947;28;92430;-66
2022/06/01 07:01:58;;;;;;;2.63;1.00;;;20.70;56.60;;;;;;4909717;28;93092;-66
2022/06/01 07:04:24;;;;;;;2.42;1.20;;;20.70;56.70;;;;;;4847459;28;92796;-65
2022/06/01 07:06:49;;;;;;;1.80;1.10;;;20.70;56.70;;;;;;4900037;28;92125;-66
2022/06/01 07:09:15;;;;;;;3.67;1.50;;;20.70;56.70;;;;;;4909220;28;92483;-66
2022/06/01 07:11:41;;;;;;;3.60;1.40;;;20.70;56.80;;;;;;4907368;28;97166;-66
2022/06/01 07:14:06;;;;;;;1.92;1.25;;;20.80;56.90;;;;;;4908826;28;95065;-67
2022/06/01 07:16:35;;;;;;;3.47;1.30;;;20.70;57.00;;;;;;4909656;28;92402;-67
2022/06/01 07:19:04;;;;;;;5.15;1.55;;;20.70;56.80;;;;;;4909259;28;92032;-68
2022/06/01 07:21:30;;;;;;;;;;;20.80;56.70;;;;;;4906861;28;96825;-66
2022/06/01 07:24:02;;;;;;;6.07;1.70;;;20.70;56.70;;;;;;4909379;28;92934;-67
2022/06/01 07:26:34;;;;;;;22.77;7.07;;;20.80;56.40;;;;;;4908837;28;92980;-66
2022/06/01 07:29:00;;;;;;;41.45;9.07;;;20.80;56.40;;;;;;4910137;28;92012;-66
2022/06/01 07:31:32;;;;;;;42.97;9.90;;;20.70;56.30;;;;;;4909880;28;93082;-66
2022/06/01 07:33:58;;;;;;;32.08;7.35;;;20.80;56.20;;;;;;4909534;28;92310;-66
2022/06/01 07:36:24;;;;;;;36.38;8.10;;;20.80;55.40;;;;;;4909742;28;93943;-67
2022/06/01 07:44:28;;;;;;;21.58;7.10;;;20.70;55.30;;;;;;4908289;28;92978;-67
2022/06/01 07:46:54;;;;;;;22.10;6.70;;;20.70;55.20;;;;;;4906621;28;93113;-67
2022/06/01 07:49:20;;;;;;;22.27;6.20;;;20.70;55.20;;;;;;4903750;28;92499;-67
2022/06/01 07:51:47;;;;;;;28.95;6.50;;;20.80;55.50;;;;;;4908367;28;92978;-66
2022/06/01 07:54:14;;;;;;;42.65;12.50;;;20.80;56.10;;;;;;4909333;28;92455;-67
2022/06/01 07:56:40;;;;;;;62.05;14.65;;;20.90;56.70;;;;;;4908277;28;92828;-66
2022/06/01 07:59:06;;;;;;;43.88;12.18;;;20.90;57.30;;;;;;4908141;28;92022;-67
2022/06/01 08:01:33;;;;;;;51.60;12.45;;;20.90;56.60;;;;;;4908077;28;94543;-67
2022/06/01 08:04:02;;;;;;;50.95;11.50;;;20.90;56.30;;;;;;4905753;28;94300;-67
2022/06/01 08:06:28;;;;;;;36.53;10.63;;;20.90;56.70;;;;;;4905928;28;92566;-67
2022/06/01 08:08:54;;;;;;;36.78;10.27;;;21.00;56.40;;;;;;4907803;28;92200;-67
2022/06/01 08:13:06;;;;;;;37.42;10.20;;;21.00;57.00;;;;;;4906430;28;92495;-67
2022/06/01 08:14:08;;;;;;;39.42;9.77;;;21.00;57.20;;;;;;4906325;28;93564;-67
2022/06/01 08:16:34;;;;;;;23.15;8.35;;;21.00;57.20;;;;;;4922195;28;93161;-66
2022/06/01 08:18:59;;;;;;;27.55;8.40;;;21.00;57.10;;;;;;4906240;28;93012;-67
2022/06/01 08:21:25;;;;;;;28.40;7.93;;;21.00;57.20;;;;;;4908087;28;92754;-67
2022/06/01 08:23:51;;;;;;;26.13;7.30;;;21.00;57.30;;;;;;4907488;28;92848;-66
2022/06/01 08:26:17;;;;;;;21.42;7.55;;;21.00;57.30;;;;;;4907630;28;93876;-67
2022/06/01 08:28:42;;;;;;;31.75;8.55;;;21.00;57.40;;;;;;4908435;28;92452;-67
2022/06/01 08:31:08;;;;;;;19.35;7.50;;;21.00;57.70;;;;;;4909411;28;93215;-67
2022/06/01 08:33:34;;;;;;;29.98;8.30;;;20.90;56.80;;;;;;4910609;28;92864;-67
2022/06/01 08:36:00;;;;;;;21.05;6.35;;;20.90;57.90;;;;;;4907690;28;92895;-67
2022/06/01 08:38:26;;;;;;;24.48;6.10;;;20.90;57.40;;;;;;4909427;28;92091;-67
2022/06/01 08:40:57;;;;;;;19.70;5.63;;;20.90;57.30;;;;;;4908665;28;92887;-67
2022/06/01 08:43:27;;;;;;;20.30;6.28;;;20.90;56.30;;;;;;4908937;28;92866;-67
2022/06/01 08:45:58;;;;;;;16.30;5.82;;;20.90;56.70;;;;;;4908361;28;92461;-66
2022/06/01 08:48:46;;;;;;;16.70;5.72;;;20.90;56.60;;;;;;4909020;28;93021;-66
2022/06/01 08:51:12;;;;;;;17.08;4.70;;;20.90;56.50;;;;;;4907750;28;94607;-66
2022/06/01 08:53:38;;;;;;;12.60;4.18;;;20.90;56.30;;;;;;4907894;28;93248;-66
2022/06/01 08:56:13;;;;;;;12.60;4.50;;;20.90;55.90;;;;;;4909097;28;92044;-66
2022/06/01 08:59:11;;;;;;;12.02;5.03;;;20.90;56.00;;;;;;4908136;28;92007;-67
2022/06/01 09:01:52;;;;;;;9.90;4.20;;;21.00;55.40;;;;;;4909824;28;95918;-67
2022/06/01 09:04:41;;;;;;;17.23;4.35;;;20.90;55.40;;;;;;4908457;28;93636;-67
2022/06/01 09:07:25;;;;;;;14.50;4.05;;;20.90;55.60;;;;;;4915025;28;92644;-66
2022/06/01 09:09:59;;;;;;;12.23;3.47;;;20.90;55.40;;;;;;4915148;28;91636;-67
2022/06/01 09:12:25;;;;;;;13.35;3.97;;;20.90;54.60;;;;;;4914515;28;93401;-67
2022/06/01 09:14:55;;;;;;;10.15;3.45;;;20.90;54.30;;;;;;4913997;28;93211;-67
2022/06/01 09:17:21;;;;;;;11.85;3.33;;;20.90;53.80;;;;;;4914171;28;94176;-67
2022/06/01 09:22:39;;;;;;;8.27;3.15;;;20.90;53.80;;;;;;4914421;28;93070;-66
2022/06/01 09:25:16;;;;;;;10.75;3.22;;;20.90;53.90;;;;;;4914460;28;93643;-65
2022/06/01 09:27:53;;;;;;;9.05;2.95;;;20.90;54.10;;;;;;4914233;28;93395;-65
2022/06/01 09:30:25;;;;;;;10.25;3.08;;;20.90;53.90;;;;;;4914950;28;92331;-66
2022/06/01 09:33:30;;;;;;;6.30;3.10;;;20.90;53.60;;;;;;4914680;28;93095;-66
2022/06/01 09:36:07;;;;;;;13.70;3.03;;;20.90;53.80;;;;;;4907496;28;92413;-66
2022/06/01 09:39:01;;;;;;;7.63;2.63;;;20.90;53.70;;;;;;4916494;28;92443;-66
2022/06/01 09:41:36;;;;;;;9.07;2.97;;;20.90;54.00;;;;;;4915934;28;92615;-66
2022/06/01 09:44:07;;;;;;;10.43;2.55;;;20.90;53.80;;;;;;4913992;28;93564;-66
2022/06/01 09:46:41;;;;;;;4.97;2.38;;;20.90;53.60;;;;;;4914037;28;95182;-66
2022/06/01 09:49:50;;;;;;;9.73;2.50;;;20.90;53.60;;;;;;4914850;28;93206;-66
2022/06/01 09:52:27;;;;;;;5.63;2.03;;;20.80;53.50;;;;;;4894460;28;92170;-66
2022/06/01 09:54:56;;;;;;;5.45;2.20;;;20.90;53.70;;;;;;4895612;28;93106;-65
2022/06/01 09:57:27;;;;;;;6.28;2.22;;;20.90;53.30;;;;;;4896268;28;96144;-66
2022/06/01 10:08:29;;;;;;;6.15;2.30;;;20.90;53.30;;;;;;4914440;28;92920;-67
2022/06/01 10:11:19;;;;;;;3.38;1.83;;;20.90;53.40;;;;;;4911445;28;94064;-66
2022/06/01 10:13:52;;;;;;;4.28;2.03;;;20.90;53.00;;;;;;4912732;28;93431;-66
2022/06/01 10:16:39;;;;;;;5.90;2.40;;;20.90;53.10;;;;;;4911014;28;96711;-65
2022/06/01 10:19:11;;;;;;;10.05;2.83;;;20.90;53.10;;;;;;4911521;28;93234;-65
2022/06/01 10:21:50;;;;;;;5.05;2.08;;;20.90;52.90;;;;;;4910831;28;92256;-67
2022/06/01 10:24:20;;;;;;;;;;;20.90;52.70;;;;;;4925442;28;92024;-66
2022/06/01 10:26:55;;;;;;;7.50;2.35;;;21.00;52.90;;;;;;4911853;28;92575;-65
2022/06/01 10:29:30;;;;;;;12.63;2.70;;;21.00;52.70;;;;;;4908587;28;92294;-66
2022/06/01 10:32:03;;;;;;;9.70;2.50;;;21.00;53.50;;;;;;4907902;28;92174;-67
2022/06/01 10:34:50;;;;;;;7.28;2.38;;;21.00;53.90;;;;;;4906385;28;93550;-65
2022/06/01 10:38:21;;;;;;;6.72;2.03;;;21.00;54.20;;;;;;4908485;28;94151;-65
2022/06/01 10:41:12;;;;;;;8.32;2.10;;;21.00;54.20;;;;;;4868845;28;94148;-66
2022/06/01 10:44:21;;;;;;;8.27;2.70;;;21.00;54.70;;;;;;4909632;28;92817;-67
2022/06/01 10:47:12;;;;;;;7.20;1.95;;;21.00;55.20;;;;;;4908854;28;92512;-67
2022/06/01 10:49:56;;;;;;;10.23;2.47;;;21.00;55.80;;;;;;4908521;28;93065;-65
2022/06/01 10:52:24;;;;;;;7.13;2.42;;;21.00;55.30;;;;;;4909847;28;92968;-65
2022/06/01 10:55:09;;;;;;;7.63;2.38;;;21.10;55.50;;;;;;4909778;28;93025;-65
2022/06/01 10:57:41;;;;;;;5.45;2.08;;;21.00;55.30;;;;;;4907699;28;92014;-66
2022/06/01 11:00:14;;;;;;;7.97;2.20;;;21.10;55.60;;;;;;4908720;28;93106;-67
2022/06/01 11:03:04;;;;;;;8.75;2.47;;;21.00;55.70;;;;;;4908505;28;92879;-64
2022/06/01 11:05:42;;;;;;;9.23;3.10;;;21.00;55.70;;;;;;4906207;28;93706;-67
2022/06/01 11:08:34;;;;;;;7.25;2.40;;;21.00;55.40;;;;;;4908206;28;93144;-67
2022/06/01 11:11:09;;;;;;;9.80;2.28;;;21.00;55.50;;;;;;4908872;28;92560;-64
2022/06/01 11:14:02;;;;;;;12.45;2.40;;;21.00;54.40;;;;;;4908766;28;93024;-65
2022/06/01 11:16:47;;;;;;;12.50;2.60;;;21.00;55.30;;;;;;4908967;28;92036;-65
2022/06/01 11:19:37;;;;;;;8.48;2.30;;;21.00;55.60;;;;;;4908916;28;92217;-65
2022/06/01 11:22:15;;;;;;;5.78;2.33;;;21.00;55.40;;;;;;4909902;28;93611;-65
2022/06/01 11:24:53;;;;;;;4.60;2.15;;;21.00;55.10;;;;;;4907948;28;96258;-66
2022/06/01 11:27:40;;;;;;;14.77;2.47;;;21.00;55.30;;;;;;4905592;28;92746;-66
2022/06/01 11:30:21;;;;;;;8.93;2.70;;;21.10;55.80;;;;;;4907006;28;93573;-65
2022/06/01 11:33:06;;;;;;;15.13;2.92;;;21.10;55.80;;;;;;4908632;28;93841;-67
2022/06/01 11:35:39;;;;;;;11.18;3.15;;;21.10;55.70;;;;;;4907134;28;95181;-66
2022/06/01 11:38:15;;;;;;;8.98;2.38;;;21.10;55.50;;;;;;4906561;28;92930;-68
2022/06/01 11:40:54;;;;;;;6.60;2.50;;;21.10;55.90;;;;;;4905953;28;93048;-66
2022/06/01 11:43:27;;;;;;;10.65;2.67;;;21.10;56.20;;;;;;4907280;28;93071;-67
2022/06/01 11:46:23;;;;;;;14.75;2.47;;;21.10;56.00;;;;;;4907755;28;92656;-69
2022/06/01 11:48:55;;;;;;;9.43;2.55;;;21.10;56.00;;;;;;4908393;28;92445;-67
2022/06/01 11:51:37;;;;;;;15.48;2.30;;;21.10;56.10;;;;;;4908025;28;91425;-67
2022/06/01 11:54:17;;;;;;;8.18;2.30;;;21.10;55.40;;;;;;4907033;28;96216;-67
2022/06/01 11:56:59;;;;;;;6.05;2.45;;;21.10;55.30;;;;;;4908216;28;92919;-66
2022/06/01 11:59:33;;;;;;;9.95;2.42;;;21.00;55.20;;;;;;4904891;28;93022;-66
2022/06/01 12:02:50;;;;;;;9.07;2.50;;;21.10;55.90;;;;;;4904892;28;92653;-66
2022/06/01 12:05:20;;;;;;;10.55;2.95;;;21.10;55.90;;;;;;4898328;28;94331;-67
2022/06/01 12:07:50;;;;;;;13.88;2.70;;;21.10;55.70;;;;;;4903161;28;92996;-66
2022/06/01 12:10:24;;;;;;;12.45;3.00;;;21.10;55.80;;;;;;4906968;28;93196;-67
2022/06/01 12:12:55;;;;;;;11.60;2.65;;;21.10;55.70;;;;;;4905369;28;93234;-66
2022/06/01 12:15:29;;;;;;;8.07;2.83;;;21.10;56.20;;;;;;4906732;28;92738;-67
2022/06/01 12:18:07;;;;;;;11.00;2.92;;;21.10;56.30;;;;;;4907127;28;93554;-66
2022/06/01 12:20:32;;;;;;;8.77;2.50;;;21.10;56.30;;;;;;4919753;28;93054;-68
2022/06/01 12:28:53;;;;;;;8.63;2.25;;;21.10;56.70;;;;;;4906373;28;92962;-66
2022/06/01 12:31:24;;;;;;;8.77;2.67;;;21.00;57.10;;;;;;4906559;28;92070;-66
2022/06/01 12:34:05;;;;;;;11.32;3.17;;;21.10;58.00;;;;;;4904303;28;93033;-67
2022/06/01 12:36:50;;;;;;;9.05;2.40;;;21.00;59.10;;;;;;4905913;28;93149;-67
2022/06/01 12:39:40;;;;;;;6.85;2.50;;;21.10;59.40;;;;;;4905398;28;93300;-67
2022/06/01 12:42:08;;;;;;;9.10;2.70;;;21.00;58.90;;;;;;4906324;28;92535;-67
2022/06/01 12:44:35;;;;;;;8.98;2.70;;;21.00;60.20;;;;;;4906662;28;91830;-67
2022/06/01 12:47:01;;;;;;;9.68;2.42;;;21.10;60.00;;;;;;4906178;28;93991;-65
2022/06/01 12:49:36;;;;;;;6.95;2.40;;;21.10;59.80;;;;;;4901413;28;93074;-68
2022/06/01 12:52:11;;;;;;;10.10;2.72;;;21.10;58.90;;;;;;4906416;28;93884;-66
2022/06/01 12:54:50;;;;;;;15.77;2.80;;;21.10;59.40;;;;;;4906233;28;92393;-66
2022/06/01 12:57:36;;;;;;;10.32;2.38;;;21.10;60.30;;;;;;4905239;28;92951;-65
2022/06/01 13:00:23;;;;;;;14.80;2.60;;;21.10;59.60;;;;;;4907108;28;93248;-66
2022/06/01 13:02:49;;;;;;;8.57;2.58;;;21.10;58.60;;;;;;4907899;28;93202;-66
2022/06/01 13:05:24;;;;;;;7.90;2.10;;;21.10;59.40;;;;;;4906393;28;92668;-66
2022/06/01 13:07:58;;;;;;;9.75;3.10;;;21.00;58.90;;;;;;4907636;28;92729;-67
2022/06/01 13:10:30;;;;;;;10.35;2.80;;;21.10;59.00;;;;;;4904897;28;92797;-67
2022/06/01 13:13:25;;;;;;;11.10;2.47;;;21.10;59.00;;;;;;4906783;28;93087;-66
2022/06/01 13:16:07;;;;;;;8.77;2.45;;;21.10;59.30;;;;;;4903737;28;92494;-65
2022/06/01 13:18:38;;;;;;;8.57;2.40;;;21.00;59.20;;;;;;4906322;28;94172;-67
2022/06/01 13:21:09;;;;;;;8.13;2.50;;;21.00;59.20;;;;;;4904603;28;94208;-66
2022/06/01 13:23:59;;;;;;;10.57;2.33;;;21.10;58.70;;;;;;4904346;28;92447;-68
2022/06/01 13:26:41;;;;;;;6.53;2.80;;;21.00;58.80;;;;;;4906687;28;92839;-67
2022/06/01 13:29:12;;;;;;;6.78;2.53;;;21.10;58.80;;;;;;4906695;28;93310;-68
2022/06/01 13:31:39;;;;;;;5.00;2.25;;;21.10;59.00;;;;;;4907394;28;93311;-66
2022/06/01 13:34:07;;;;;;;7.68;2.65;;;21.10;59.60;;;;;;4907763;28;92506;-68
2022/06/01 13:36:39;;;;;;;8.90;2.70;;;21.10;59.00;;;;;;4907923;28;92191;-68